createdAt,value
2019-03-04T00:01:33.162Z,67.91
2019-03-04T00:02:33.221Z,68.29
2019-03-04T00:04:26.717Z,68.19
2019-03-04T00:05:26.764Z,69.05
2019-03-04T00:07:19.750Z,69.05
2019-03-04T00:08:19.808Z,68.67
2019-03-04T00:10:12.792Z,68.38
2019-03-04T00:11:12.849Z,68.10
2019-03-04T00:13:05.833Z,68.19
2019-03-04T00:14:05.881Z,68.67
2019-03-04T00:15:58.864Z,68.67
2019-03-04T00:16:58.924Z,68.86
2019-03-04T00:18:51.912Z,68.86
2019-03-04T00:19:51.958Z,69.05
2019-03-04T00:21:44.937Z,68.76
2019-03-04T00:22:45.004Z,68.86
2019-03-04T00:24:37.999Z,69.05
2019-03-04T00:25:38.054Z,68.57
2019-03-04T00:27:31.035Z,69.24
2019-03-04T00:28:31.098Z,68.67
2019-03-04T00:30:24.085Z,69.15
2019-03-04T00:31:24.134Z,68.86
2019-03-04T00:33:17.131Z,69.05
2019-03-04T00:34:17.173Z,68.76
2019-03-04T00:36:10.154Z,68.86
2019-03-04T00:37:10.216Z,69.15
2019-03-04T00:39:03.223Z,69.72
2019-03-04T00:40:03.273Z,68.67
2019-03-04T00:41:56.256Z,68.76
2019-03-04T00:42:56.316Z,68.86
2019-03-04T00:44:49.301Z,69.05
2019-03-04T00:45:49.354Z,69.34
2019-03-04T00:47:42.326Z,69.05
2019-03-04T00:48:42.396Z,68.76
2019-03-04T00:50:35.375Z,68.76
2019-03-04T00:51:35.424Z,68.67
2019-03-04T00:53:28.418Z,68.57
2019-03-04T00:54:28.466Z,68.48
2019-03-04T00:56:21.449Z,68.57
2019-03-04T00:57:21.505Z,68.76
2019-03-04T00:59:14.492Z,68.67
2019-03-04T01:00:14.547Z,68.57
2019-03-04T01:02:07.532Z,68.57
2019-03-04T01:03:07.591Z,68.76
2019-03-04T01:05:01.099Z,68.86
2019-03-04T01:06:03.327Z,68.86
2019-03-04T01:07:54.138Z,68.67
2019-03-04T01:08:54.185Z,68.96
2019-03-04T01:10:47.185Z,68.86
2019-03-04T01:11:47.235Z,68.76
2019-03-04T01:13:40.236Z,69.05
2019-03-04T01:14:40.290Z,68.10
2019-03-04T01:16:33.266Z,68.38
2019-03-04T01:17:33.324Z,69.24
2019-03-04T01:19:26.315Z,69.53
2019-03-04T01:20:26.362Z,68.86
2019-03-04T01:22:19.359Z,68.57
2019-03-04T01:23:19.403Z,68.76
2019-03-04T01:25:12.391Z,68.67
2019-03-04T01:26:12.435Z,68.00
2019-03-04T01:28:05.436Z,67.62
2019-03-04T01:29:05.497Z,68.29
2019-03-04T01:30:58.488Z,68.67
2019-03-04T01:31:58.540Z,68.29
2019-03-04T01:33:51.524Z,68.67
2019-03-04T01:34:51.576Z,69.53
2019-03-04T01:36:44.547Z,69.05
2019-03-04T01:37:44.613Z,69.05
2019-03-04T01:39:37.603Z,68.38
2019-03-04T01:40:37.651Z,67.91
2019-03-04T01:42:30.636Z,68.06
2019-03-04T01:43:30.698Z,68.48
2019-03-04T01:45:23.687Z,68.10
2019-03-04T01:46:23.739Z,68.48
2019-03-04T01:48:16.723Z,68.29
2019-03-04T01:49:16.784Z,68.76
2019-03-04T01:51:09.784Z,67.81
2019-03-04T01:52:09.822Z,68.06
2019-03-04T01:54:02.809Z,67.91
2019-03-04T01:55:02.862Z,68.29
2019-03-04T01:56:55.840Z,68.19
2019-03-04T01:57:55.898Z,68.48
2019-03-04T01:59:48.890Z,69.05
2019-03-04T02:00:48.944Z,68.86
2019-03-04T02:02:41.923Z,68.76
2019-03-04T02:03:41.983Z,68.67
2019-03-04T02:05:34.973Z,67.71
2019-03-04T02:06:35.021Z,68.57
2019-03-04T02:08:28.004Z,68.48
2019-03-04T02:09:28.067Z,67.81
2019-03-04T02:11:21.049Z,68.48
2019-03-04T02:12:21.096Z,68.38
2019-03-04T02:14:14.103Z,68.96
2019-03-04T02:15:14.156Z,68.00
2019-03-04T02:17:07.136Z,67.62
2019-03-04T02:18:07.192Z,67.62
2019-03-04T02:20:00.272Z,67.62
2019-03-04T02:21:00.234Z,67.77
2019-03-04T02:22:53.235Z,68.86
2019-03-04T02:23:53.272Z,68.48
2019-03-04T02:25:46.261Z,68.26
2019-03-04T02:26:46.325Z,69.05
2019-03-04T02:28:39.321Z,69.05
2019-03-04T02:29:39.376Z,69.53
2019-03-04T02:31:32.368Z,69.24
2019-03-04T02:32:32.415Z,69.43
2019-03-04T02:34:25.406Z,69.34
2019-03-04T02:35:25.451Z,69.53
2019-03-04T02:37:18.447Z,70.29
2019-03-04T02:38:18.497Z,69.72
2019-03-04T02:40:11.495Z,69.34
2019-03-04T02:41:11.557Z,69.53
2019-03-04T02:43:04.546Z,69.91
2019-03-04T02:44:04.586Z,70.58
2019-03-04T02:45:57.576Z,69.91
2019-03-04T02:46:57.623Z,70.29
2019-03-04T02:48:50.610Z,70.67
2019-03-04T02:49:50.664Z,70.10
2019-03-04T02:51:43.641Z,69.91
2019-03-04T02:52:43.709Z,70.77
2019-03-04T02:54:36.687Z,70.29
2019-03-04T02:55:36.737Z,70.48
2019-03-04T02:57:29.721Z,70.48
2019-03-04T02:58:29.777Z,70.29
2019-03-04T03:00:22.772Z,70.48
2019-03-04T03:01:22.810Z,70.20
2019-03-04T03:03:15.795Z,70.10
2019-03-04T03:04:15.851Z,70.39
2019-03-04T03:06:08.841Z,70.48
2019-03-04T03:07:08.891Z,70.48
2019-03-04T03:09:01.876Z,70.10
2019-03-04T03:10:01.931Z,69.82
2019-03-04T03:11:54.919Z,69.72
2019-03-04T03:12:54.977Z,69.91
2019-03-04T03:14:47.969Z,70.58
2019-03-04T03:15:48.023Z,70.67
2019-03-04T03:17:40.996Z,70.96
2019-03-04T03:18:41.056Z,71.25
2019-03-04T03:20:34.043Z,71.15
2019-03-04T03:21:34.096Z,70.87
2019-03-04T03:23:27.082Z,70.01
2019-03-04T03:24:27.133Z,70.39
2019-03-04T03:26:20.122Z,70.48
2019-03-04T03:27:20.183Z,71.06
2019-03-04T03:29:13.153Z,71.53
2019-03-04T03:30:13.229Z,71.92
2019-03-04T03:32:06.201Z,71.15
2019-03-04T03:33:06.252Z,70.96
2019-03-04T03:34:59.264Z,70.58
2019-03-04T03:35:59.301Z,70.77
2019-03-04T03:37:52.270Z,70.29
2019-03-04T03:38:52.331Z,70.77
2019-03-04T03:40:45.319Z,70.87
2019-03-04T03:41:45.366Z,71.15
2019-03-04T03:43:38.354Z,71.63
2019-03-04T03:44:38.409Z,71.25
2019-03-04T03:46:31.392Z,70.96
2019-03-04T03:47:31.445Z,70.39
2019-03-04T03:49:24.424Z,70.39
2019-03-04T03:50:24.483Z,70.20
2019-03-04T03:52:17.477Z,70.54
2019-03-04T03:53:17.526Z,69.97
2019-03-04T03:55:10.783Z,69.87
2019-03-04T03:56:10.564Z,69.40
2019-03-04T03:58:03.542Z,70.36
2019-03-04T03:59:03.599Z,69.59
2019-03-04T04:00:56.591Z,70.45
2019-03-04T04:01:56.640Z,69.68
2019-03-04T04:03:49.643Z,69.21
2019-03-04T04:04:49.698Z,69.97
2019-03-04T04:06:42.675Z,69.68
2019-03-04T04:07:42.732Z,70.16
2019-03-04T04:09:35.713Z,70.36
2019-03-04T04:10:35.768Z,70.45
2019-03-04T04:12:28.752Z,69.78
2019-03-04T04:13:28.805Z,70.26
2019-03-04T04:15:21.816Z,70.92
2019-03-04T04:16:21.849Z,70.83
2019-03-04T04:18:14.831Z,71.31
2019-03-04T04:19:14.894Z,70.83
2019-03-04T04:21:07.877Z,71.50
2019-03-04T04:22:07.929Z,71.15
2019-03-04T04:24:00.924Z,71.34
2019-03-04T04:25:00.968Z,72.30
2019-03-04T04:26:53.951Z,72.97
2019-03-04T04:27:54.003Z,72.20
2019-03-04T04:29:46.981Z,72.68
2019-03-04T04:30:47.039Z,72.97
2019-03-04T04:32:40.535Z,73.35
2019-03-04T04:33:40.584Z,73.07
2019-03-04T04:35:33.588Z,73.54
2019-03-04T04:36:33.643Z,73.07
2019-03-04T04:38:26.623Z,72.87
2019-03-04T04:39:26.683Z,73.35
2019-03-04T04:41:19.672Z,73.44
2019-03-04T04:42:19.726Z,73.54
2019-03-04T04:44:12.811Z,73.83
2019-03-04T04:45:12.764Z,75.45
2019-03-04T04:47:05.753Z,75.26
2019-03-04T04:48:05.800Z,74.53
2019-03-04T04:49:58.804Z,73.92
2019-03-04T04:50:58.859Z,73.83
2019-03-04T04:52:51.845Z,74.59
2019-03-04T04:53:51.897Z,74.98
2019-03-04T04:55:44.900Z,74.88
2019-03-04T04:56:44.933Z,75.39
2019-03-04T04:58:37.936Z,75.10
2019-03-04T04:59:37.978Z,74.78
2019-03-04T05:01:30.966Z,75.30
2019-03-04T05:02:31.025Z,75.87
2019-03-04T05:04:24.020Z,75.39
2019-03-04T05:05:24.075Z,76.06
2019-03-04T05:07:17.069Z,75.59
2019-03-04T05:08:17.117Z,76.16
2019-03-04T05:10:10.102Z,76.54
2019-03-04T05:11:10.162Z,76.06
2019-03-04T05:13:03.160Z,77.30
2019-03-04T05:14:03.200Z,77.50
2019-03-04T05:15:56.206Z,77.78
2019-03-04T05:16:56.263Z,77.30
2019-03-04T05:18:49.236Z,77.01
2019-03-04T05:19:49.293Z,77.50
2019-03-04T05:21:42.284Z,77.87
2019-03-04T05:22:42.332Z,77.59
2019-03-04T05:24:35.310Z,78.74
2019-03-04T05:25:35.369Z,78.45
2019-03-04T05:27:28.359Z,78.93
2019-03-04T05:28:28.409Z,79.50
2019-03-04T05:30:21.388Z,79.31
2019-03-04T05:31:21.445Z,79.69
2019-03-04T05:33:14.431Z,80.36
2019-03-04T05:34:14.484Z,80.17
2019-03-04T05:36:07.506Z,79.54
2019-03-04T05:37:07.545Z,79.12
2019-03-04T05:39:00.520Z,79.31
2019-03-04T05:40:00.581Z,79.02
2019-03-04T05:41:53.569Z,79.12
2019-03-04T05:42:53.623Z,78.74
2019-03-04T05:44:46.618Z,79.02
2019-03-04T05:45:46.690Z,79.98
2019-03-04T05:47:39.655Z,79.79
2019-03-04T05:48:39.708Z,79.69
2019-03-04T05:50:32.686Z,80.07
2019-03-04T05:51:32.745Z,79.88
2019-03-04T05:53:25.731Z,79.88
2019-03-04T05:54:25.784Z,79.69
2019-03-04T05:56:18.774Z,79.41
2019-03-04T05:57:18.827Z,79.60
2019-03-04T05:59:19.324Z,80.07
2019-03-04T06:00:11.872Z,79.31
2019-03-04T06:02:04.859Z,79.98
2019-03-04T06:03:04.907Z,78.93
2019-03-04T06:04:57.890Z,79.88
2019-03-04T06:05:57.948Z,79.69
2019-03-04T06:07:50.939Z,80.17
2019-03-04T06:08:50.988Z,79.50
2019-03-04T06:10:43.965Z,76.92
2019-03-04T06:11:44.024Z,75.68
2019-03-04T06:13:37.027Z,77.01
2019-03-04T06:14:37.064Z,74.53
2019-03-04T06:16:30.068Z,73.63
2019-03-04T06:17:30.102Z,73.07
2019-03-04T06:19:23.092Z,70.48
2019-03-04T06:20:23.154Z,77.42
2019-03-04T06:22:16.141Z,71.08
2019-03-04T06:23:16.189Z,73.56
2019-03-04T06:25:09.179Z,72.03
2019-03-04T06:26:09.229Z,73.08
2019-03-04T06:28:02.210Z,72.19
2019-03-04T06:29:02.269Z,71.72
2019-03-04T06:30:55.249Z,71.72
2019-03-04T06:31:55.300Z,70.67
2019-03-04T06:33:48.284Z,70.38
2019-03-04T06:34:48.340Z,68.95
2019-03-04T06:36:41.430Z,71.33
2019-03-04T06:37:41.380Z,71.23
2019-03-04T06:39:34.358Z,73.43
2019-03-04T06:40:34.414Z,74.29
2019-03-04T06:42:27.401Z,75.53
2019-03-04T06:43:27.452Z,75.62
2019-03-04T06:45:20.439Z,74.67
2019-03-04T06:46:20.492Z,75.81
2019-03-04T06:48:13.485Z,75.24
2019-03-04T06:49:13.541Z,76.86
2019-03-04T06:51:06.517Z,76.35
2019-03-04T06:52:06.574Z,75.96
2019-03-04T06:53:59.565Z,76.35
2019-03-04T06:54:59.612Z,76.25
2019-03-04T06:56:54.461Z,76.06
2019-03-04T06:57:52.655Z,76.25
2019-03-04T06:59:45.641Z,76.54
2019-03-04T07:00:45.695Z,76.25
2019-03-04T07:02:38.677Z,77.59
2019-03-04T07:03:38.729Z,77.69
2019-03-04T07:05:31.713Z,77.40
2019-03-04T07:06:31.770Z,77.30
2019-03-04T07:08:24.761Z,77.59
2019-03-04T07:09:24.807Z,79.11
2019-03-04T07:11:17.792Z,79.30
2019-03-04T07:12:17.847Z,79.68
2019-03-04T07:14:10.855Z,80.35
2019-03-04T07:15:10.882Z,81.78
2019-03-04T07:17:03.882Z,79.97
2019-03-04T07:18:03.917Z,80.44
2019-03-04T07:19:56.897Z,80.73
2019-03-04T07:20:56.955Z,79.49
2019-03-04T07:22:49.945Z,80.16
2019-03-04T07:23:50.005Z,79.74
2019-03-04T07:25:42.973Z,80.69
2019-03-04T07:26:43.022Z,80.02
2019-03-04T07:28:36.009Z,79.11
2019-03-04T07:29:36.059Z,79.59
2019-03-04T07:31:29.040Z,79.36
2019-03-04T07:32:29.096Z,78.78
2019-03-04T07:34:22.080Z,78.78
2019-03-04T07:35:22.132Z,79.36
2019-03-04T07:37:15.124Z,78.03
2019-03-04T07:38:15.178Z,77.64
2019-03-04T07:40:08.174Z,78.50
2019-03-04T07:41:08.220Z,77.97
2019-03-04T07:43:01.211Z,79.40
2019-03-04T07:44:01.261Z,79.49
2019-03-04T07:45:54.247Z,78.06
2019-03-04T07:46:54.300Z,77.59
2019-03-04T07:48:47.280Z,77.30
2019-03-04T07:49:47.350Z,77.87
2019-03-04T07:51:40.317Z,77.45
2019-03-04T07:52:40.377Z,78.35
2019-03-04T07:54:33.359Z,78.54
2019-03-04T07:55:33.414Z,79.30
2019-03-04T07:57:26.417Z,77.59
2019-03-04T07:58:26.459Z,77.49
2019-03-04T08:00:20.947Z,77.20
2019-03-04T08:01:20.993Z,77.53
2019-03-04T08:03:13.993Z,78.01
2019-03-04T08:04:14.044Z,79.00
2019-03-04T08:06:07.065Z,81.89
2019-03-04T08:07:07.120Z,80.22
2019-03-04T08:09:00.108Z,78.81
2019-03-04T08:10:00.312Z,77.82
2019-03-04T08:11:53.148Z,77.15
2019-03-04T08:12:53.209Z,76.01
2019-03-04T08:14:46.215Z,74.25
2019-03-04T08:15:46.247Z,74.35
2019-03-04T08:17:39.343Z,70.21
2019-03-04T08:18:39.285Z,68.12
2019-03-04T08:20:32.271Z,63.42
2019-03-04T08:21:32.326Z,60.37
2019-03-04T08:23:25.321Z,57.48
2019-03-04T08:24:25.371Z,57.39
2019-03-04T08:26:18.349Z,56.24
2019-03-04T08:27:18.408Z,57.58
2019-03-04T08:29:11.392Z,57.58
2019-03-04T08:30:11.449Z,58.22
2019-03-04T08:32:04.423Z,58.44
2019-03-04T08:33:04.482Z,58.62
2019-03-04T08:34:57.484Z,59.01
2019-03-04T08:35:57.538Z,58.62
2019-03-04T08:37:50.543Z,59.39
2019-03-04T08:38:50.571Z,60.63
2019-03-04T08:40:43.555Z,61.67
2019-03-04T08:41:43.615Z,61.51
2019-03-04T08:43:36.612Z,63.70
2019-03-04T08:44:36.655Z,63.07
2019-03-04T08:46:29.630Z,65.36
2019-03-04T08:47:29.697Z,66.02
2019-03-04T08:49:22.677Z,69.35
2019-03-04T08:50:22.726Z,69.17
2019-03-04T08:52:15.703Z,72.86
2019-03-04T08:53:15.763Z,76.79
2019-03-04T08:55:08.746Z,75.22
2019-03-04T08:56:08.798Z,77.13
2019-03-04T08:58:01.799Z,75.95
2019-03-04T08:59:01.839Z,75.85
2019-03-04T09:00:55.343Z,76.33
2019-03-04T09:01:55.391Z,78.28
2019-03-04T09:03:48.401Z,78.14
2019-03-04T09:04:48.431Z,74.52
2019-03-04T09:06:41.414Z,77.09
2019-03-04T09:07:41.471Z,78.94
2019-03-04T09:09:34.469Z,78.05
2019-03-04T09:10:34.519Z,77.19
2019-03-04T09:12:27.499Z,76.10
2019-03-04T09:13:27.563Z,77.06
2019-03-04T09:15:20.548Z,76.10
2019-03-04T09:16:20.598Z,77.53
2019-03-04T09:18:13.692Z,77.15
2019-03-04T09:19:13.646Z,76.96
2019-03-04T09:21:06.633Z,78.10
2019-03-04T09:22:06.692Z,76.57
2019-03-04T09:23:59.682Z,76.96
2019-03-04T09:24:59.733Z,77.44
2019-03-04T09:26:52.716Z,77.72
2019-03-04T09:27:52.772Z,78.39
2019-03-04T09:29:46.759Z,77.82
2019-03-04T09:30:45.858Z,78.39
2019-03-04T09:32:38.849Z,79.25
2019-03-04T09:33:38.902Z,79.06
2019-03-04T09:35:32.781Z,77.91
2019-03-04T09:36:31.943Z,77.82
2019-03-04T09:38:24.960Z,77.72
2019-03-04T09:39:24.982Z,78.77
2019-03-04T09:41:17.963Z,79.53
2019-03-04T09:42:18.024Z,78.67
2019-03-04T09:44:11.012Z,80.20
2019-03-04T09:45:11.064Z,80.39
2019-03-04T09:47:04.057Z,79.72
2019-03-04T09:48:04.100Z,77.62
2019-03-04T09:49:57.086Z,77.82
2019-03-04T09:50:57.130Z,78.20
2019-03-04T09:52:50.129Z,77.06
2019-03-04T09:53:50.186Z,77.72
2019-03-04T09:55:43.203Z,76.64
2019-03-04T09:56:43.253Z,76.73
2019-03-04T09:58:36.232Z,73.58
2019-03-04T09:59:36.292Z,71.93
2019-03-04T10:01:29.300Z,69.93
2019-03-04T10:02:29.327Z,68.98
2019-03-04T10:04:22.310Z,68.88
2019-03-04T10:05:22.363Z,69.51
2019-03-04T10:07:15.342Z,68.78
2019-03-04T10:08:15.401Z,68.78
2019-03-04T10:10:08.391Z,68.69
2019-03-04T10:11:08.439Z,68.78
2019-03-04T10:13:01.418Z,68.02
2019-03-04T10:14:01.476Z,67.93
2019-03-04T10:15:54.469Z,68.21
2019-03-04T10:16:54.512Z,66.85
2019-03-04T10:18:47.491Z,70.12
2019-03-04T10:19:47.549Z,68.40
2019-03-04T10:21:40.538Z,69.64
2019-03-04T10:22:40.591Z,69.93
2019-03-04T10:24:33.578Z,70.82
2019-03-04T10:25:33.627Z,72.25
2019-03-04T10:27:26.611Z,72.25
2019-03-04T10:28:26.669Z,72.53
2019-03-04T10:30:19.660Z,71.17
2019-03-04T10:31:19.705Z,69.93
2019-03-04T10:33:12.692Z,70.44
2019-03-04T10:34:12.749Z,71.01
2019-03-04T10:36:05.734Z,71.48
2019-03-04T10:37:05.782Z,72.53
2019-03-04T10:38:58.767Z,73.01
2019-03-04T10:39:58.819Z,74.16
2019-03-04T10:41:51.816Z,72.97
2019-03-04T10:42:51.867Z,72.12
2019-03-04T10:44:44.860Z,71.39
2019-03-04T10:45:44.903Z,72.82
2019-03-04T10:47:37.889Z,71.68
2019-03-04T10:48:37.949Z,72.92
2019-03-04T10:50:30.939Z,72.16
2019-03-04T10:51:30.991Z,72.34
2019-03-04T10:53:23.975Z,72.02
2019-03-04T10:54:24.028Z,70.31
2019-03-04T10:56:17.013Z,70.40
2019-03-04T10:57:17.069Z,68.59
2019-03-04T10:59:10.054Z,67.35
2019-03-04T11:00:10.107Z,65.36
2019-03-04T11:02:03.094Z,61.99
2019-03-04T11:03:03.146Z,60.56
2019-03-04T11:04:56.130Z,59.42
2019-03-04T11:05:56.181Z,61.13
2019-03-04T11:07:49.166Z,60.97
2019-03-04T11:08:49.225Z,60.60
2019-03-04T11:10:42.215Z,58.09
2019-03-04T11:11:42.263Z,56.76
2019-03-04T11:13:35.241Z,56.38
2019-03-04T11:14:35.293Z,56.67
2019-03-04T11:16:28.289Z,57.02
2019-03-04T11:17:28.337Z,57.24
2019-03-04T11:19:21.333Z,58.54
2019-03-04T11:20:21.390Z,58.18
2019-03-04T11:22:14.378Z,58.06
2019-03-04T11:23:15.220Z,58.25
2019-03-04T11:25:07.409Z,58.63
2019-03-04T11:26:07.459Z,58.54
2019-03-04T11:28:00.452Z,59.77
2019-03-04T11:29:00.492Z,59.49
2019-03-04T11:30:53.475Z,60.16
2019-03-04T11:31:53.523Z,60.44
2019-03-04T11:33:46.502Z,60.66
2019-03-04T11:34:46.559Z,61.23
2019-03-04T11:36:39.542Z,62.08
2019-03-04T11:37:39.593Z,61.42
2019-03-04T11:39:32.574Z,61.80
2019-03-04T11:40:32.633Z,62.56
2019-03-04T11:42:25.619Z,62.85
2019-03-04T11:43:25.673Z,63.23
2019-03-04T11:45:18.661Z,63.45
2019-03-04T11:46:18.715Z,64.18
2019-03-04T11:48:11.695Z,63.17
2019-03-04T11:49:11.751Z,63.35
2019-03-04T11:51:04.734Z,64.21
2019-03-04T11:52:04.783Z,64.50
2019-03-04T11:53:57.768Z,63.73
2019-03-04T11:54:57.817Z,64.59
2019-03-04T11:56:50.806Z,65.54
2019-03-04T11:57:50.853Z,66.97
2019-03-04T11:59:43.842Z,67.57
2019-03-04T12:00:43.893Z,67.38
2019-03-04T12:02:39.144Z,67.67
2019-03-04T12:03:36.937Z,67.38
2019-03-04T12:05:29.926Z,67.47
2019-03-04T12:06:29.981Z,69.29
2019-03-04T12:08:22.959Z,70.14
2019-03-04T12:09:23.017Z,67.19
2019-03-04T12:11:16.011Z,67.86
2019-03-04T12:12:16.055Z,67.86
2019-03-04T12:14:09.029Z,67.67
2019-03-04T12:15:09.088Z,68.33
2019-03-04T12:17:02.082Z,67.67
2019-03-04T12:18:02.135Z,68.05
2019-03-04T12:19:55.110Z,69.38
2019-03-04T12:20:55.167Z,69.67
2019-03-04T12:22:48.206Z,69.29
2019-03-04T12:23:48.208Z,68.81
2019-03-04T12:25:41.196Z,67.76
2019-03-04T12:26:41.247Z,68.15
2019-03-04T12:28:34.233Z,67.76
2019-03-04T12:29:34.287Z,68.62
2019-03-04T12:31:28.461Z,69.85
2019-03-04T12:32:27.327Z,70.33
2019-03-04T12:34:24.596Z,68.62
2019-03-04T12:35:20.365Z,69.29
2019-03-04T12:37:13.351Z,70.24
2019-03-04T12:38:13.404Z,71.09
2019-03-04T12:40:06.382Z,68.52
2019-03-04T12:41:06.439Z,71.09
2019-03-04T12:42:59.425Z,69.95
2019-03-04T12:43:59.475Z,70.47
2019-03-04T12:45:52.461Z,69.23
2019-03-04T12:46:52.511Z,71.13
2019-03-04T12:48:45.494Z,72.85
2019-03-04T12:49:45.572Z,71.61
2019-03-04T12:51:38.544Z,71.70
2019-03-04T12:52:38.593Z,71.89
2019-03-04T12:54:31.577Z,71.61
2019-03-04T12:55:31.635Z,73.51
2019-03-04T12:57:24.621Z,72.85
2019-03-04T12:58:24.670Z,73.13
2019-03-04T13:00:17.650Z,70.75
2019-03-04T13:01:17.708Z,71.42
2019-03-04T13:03:10.699Z,72.46
2019-03-04T13:04:10.752Z,72.27
2019-03-04T13:06:03.748Z,71.98
2019-03-04T13:07:03.789Z,72.08
2019-03-04T13:08:56.793Z,72.85
2019-03-04T13:09:56.835Z,72.97
2019-03-04T13:11:49.874Z,72.75
2019-03-04T13:12:49.876Z,72.60
2019-03-04T13:14:42.848Z,72.17
2019-03-04T13:15:42.905Z,73.65
2019-03-04T13:17:35.907Z,72.46
2019-03-04T13:18:35.957Z,73.93
2019-03-04T13:20:28.940Z,73.17
2019-03-04T13:21:28.997Z,74.46
2019-03-04T13:23:21.988Z,75.04
2019-03-04T13:24:22.042Z,73.55
2019-03-04T13:26:15.025Z,73.07
2019-03-04T13:27:23.534Z,72.78
2019-03-04T13:29:08.052Z,73.07
2019-03-04T13:30:08.111Z,73.17
2019-03-04T13:32:01.106Z,75.26
2019-03-04T13:33:01.150Z,74.50
2019-03-04T13:34:54.125Z,75.16
2019-03-04T13:35:54.194Z,76.31
2019-03-04T13:37:47.172Z,74.50
2019-03-04T13:38:47.221Z,74.98
2019-03-04T13:40:40.199Z,74.88
2019-03-04T13:41:40.256Z,75.36
2019-03-04T13:43:33.248Z,74.88
2019-03-04T13:44:33.295Z,73.93
2019-03-04T13:46:26.290Z,74.50
2019-03-04T13:47:26.357Z,75.07
2019-03-04T13:49:19.320Z,74.46
2019-03-04T13:50:19.377Z,73.41
2019-03-04T13:52:12.368Z,73.03
2019-03-04T13:53:12.418Z,74.94
2019-03-04T13:55:05.398Z,74.84
2019-03-04T13:56:05.455Z,75.23
2019-03-04T13:57:58.445Z,76.56
2019-03-04T13:58:58.491Z,76.56
2019-03-04T14:00:52.988Z,75.79
2019-03-04T14:01:53.034Z,76.75
2019-03-04T14:03:46.027Z,76.75
2019-03-04T14:04:46.076Z,76.65
2019-03-04T14:06:39.083Z,77.70
2019-03-04T14:07:39.113Z,77.61
2019-03-04T14:09:32.095Z,77.07
2019-03-04T14:10:32.149Z,77.07
2019-03-04T14:12:25.132Z,76.98
2019-03-04T14:13:25.193Z,77.74
2019-03-04T14:15:18.169Z,77.93
2019-03-04T14:16:18.218Z,77.74
2019-03-04T14:18:11.218Z,78.64
2019-03-04T14:19:11.266Z,78.41
2019-03-04T14:21:04.251Z,77.36
2019-03-04T14:22:04.303Z,77.26
2019-03-04T14:23:57.288Z,75.55
2019-03-04T14:24:57.339Z,76.88
2019-03-04T14:26:50.329Z,76.21
2019-03-04T14:27:50.378Z,76.50
2019-03-04T14:29:43.359Z,78.88
2019-03-04T14:30:43.423Z,78.22
2019-03-04T14:32:36.406Z,77.83
2019-03-04T14:33:36.456Z,76.88
2019-03-04T14:35:29.444Z,79.36
2019-03-04T14:36:29.496Z,79.55
2019-03-04T14:38:22.481Z,79.22
2019-03-04T14:39:22.531Z,80.41
2019-03-04T14:41:15.509Z,79.07
2019-03-04T14:42:15.566Z,79.55
2019-03-04T14:44:08.557Z,79.83
2019-03-04T14:45:08.603Z,80.69
2019-03-04T14:47:01.596Z,79.55
2019-03-04T14:48:01.638Z,80.12
2019-03-04T14:49:54.621Z,79.46
2019-03-04T14:50:54.689Z,79.46
2019-03-04T14:52:47.666Z,79.32
2019-03-04T14:53:47.711Z,81.23
2019-03-04T14:55:40.710Z,78.94
2019-03-04T14:56:40.749Z,79.32
2019-03-04T14:58:33.745Z,78.94
2019-03-04T14:59:33.789Z,78.27
2019-03-04T15:01:27.269Z,79.80
2019-03-04T15:02:27.330Z,79.51
2019-03-04T15:04:20.317Z,79.22
2019-03-04T15:05:20.363Z,79.03
2019-03-04T15:07:13.362Z,79.41
2019-03-04T15:08:13.401Z,79.32
2019-03-04T15:10:06.377Z,79.89
2019-03-04T15:11:06.444Z,79.60
2019-03-04T15:12:59.438Z,79.70
2019-03-04T15:13:59.487Z,79.51
2019-03-04T15:16:01.038Z,79.41
2019-03-04T15:16:52.526Z,79.22
2019-03-04T15:18:45.513Z,79.03
2019-03-04T15:19:45.562Z,79.32
2019-03-04T15:21:38.550Z,79.60
2019-03-04T15:22:38.598Z,79.41
2019-03-04T15:24:31.589Z,79.32
2019-03-04T15:25:31.636Z,79.32
2019-03-04T15:27:24.624Z,78.99
2019-03-04T15:28:24.670Z,79.38
2019-03-04T15:30:17.649Z,78.80
2019-03-04T15:31:17.704Z,78.52
2019-03-04T15:33:17.484Z,78.99
2019-03-04T15:34:10.739Z,79.85
2019-03-04T15:36:03.715Z,79.75
2019-03-04T15:37:03.771Z,79.19
2019-03-04T15:38:56.754Z,79.47
2019-03-04T15:39:56.806Z,79.38
2019-03-04T15:41:50.356Z,78.90
2019-03-04T15:42:49.852Z,78.42
2019-03-04T15:44:42.842Z,79.19
2019-03-04T15:45:42.894Z,78.71
2019-03-04T15:47:36.720Z,78.61
2019-03-04T15:48:35.928Z,78.61
2019-03-04T15:50:28.906Z,78.71
2019-03-04T15:51:28.971Z,79.09
2019-03-04T15:53:21.943Z,78.71
2019-03-04T15:54:21.995Z,78.90
2019-03-04T15:56:14.985Z,78.61
2019-03-04T15:57:15.059Z,78.61
2019-03-04T15:59:08.034Z,78.14
2019-03-04T16:00:08.088Z,78.71
2019-03-04T16:02:01.063Z,77.85
2019-03-04T16:03:01.354Z,78.61
2019-03-04T16:04:54.102Z,78.14
2019-03-04T16:05:54.153Z,78.48
2019-03-04T16:07:47.157Z,79.14
2019-03-04T16:08:47.190Z,78.04
2019-03-04T16:10:40.694Z,77.53
2019-03-04T16:11:40.280Z,77.43
2019-03-04T16:13:33.213Z,78.00
2019-03-04T16:14:33.261Z,78.10
2019-03-04T16:16:26.250Z,78.57
2019-03-04T16:17:26.303Z,79.14
2019-03-04T16:19:19.289Z,78.38
2019-03-04T16:20:19.338Z,78.38
2019-03-04T16:22:12.354Z,79.52
2019-03-04T16:23:12.374Z,78.38
2019-03-04T16:25:05.371Z,78.86
2019-03-04T16:26:05.406Z,78.00
2019-03-04T16:27:58.391Z,77.43
2019-03-04T16:28:58.440Z,78.48
2019-03-04T16:30:51.420Z,79.81
2019-03-04T16:31:51.475Z,79.62
2019-03-04T16:33:44.465Z,78.77
2019-03-04T16:34:44.513Z,79.62
2019-03-04T16:36:37.518Z,79.62
2019-03-04T16:37:37.540Z,78.96
2019-03-04T16:39:30.526Z,78.77
2019-03-04T16:40:30.588Z,78.57
2019-03-04T16:42:23.566Z,78.96
2019-03-04T16:43:23.615Z,79.05
2019-03-04T16:45:16.603Z,79.14
2019-03-04T16:46:16.906Z,79.52
2019-03-04T16:48:09.627Z,79.24
2019-03-04T16:49:09.676Z,79.52
2019-03-04T16:51:02.667Z,79.52
2019-03-04T16:52:02.812Z,79.52
2019-03-04T16:53:55.706Z,78.96
2019-03-04T16:54:57.307Z,79.05
2019-03-04T16:56:48.735Z,79.20
2019-03-04T16:57:48.783Z,78.57
2019-03-04T16:59:41.790Z,78.63
2019-03-04T17:00:41.820Z,78.44
2019-03-04T17:02:37.793Z,78.63
2019-03-04T17:03:37.852Z,78.53
2019-03-04T17:05:30.835Z,78.44
2019-03-04T17:06:30.886Z,78.82
2019-03-04T17:08:23.880Z,79.01
2019-03-04T17:09:23.931Z,78.72
2019-03-04T17:11:16.924Z,78.06
2019-03-04T17:12:16.978Z,78.16
2019-03-04T17:14:09.956Z,78.06
2019-03-04T17:15:10.022Z,78.06
2019-03-04T17:17:03.001Z,77.11
2019-03-04T17:18:03.039Z,77.30
2019-03-04T17:19:56.037Z,78.16
2019-03-04T17:20:56.072Z,78.72
2019-03-04T17:22:49.047Z,78.91
2019-03-04T17:23:49.316Z,79.01
2019-03-04T17:25:42.099Z,78.91
2019-03-04T17:26:42.135Z,78.34
2019-03-04T17:28:35.120Z,78.44
2019-03-04T17:29:35.165Z,78.44
2019-03-04T17:31:28.146Z,78.53
2019-03-04T17:32:28.206Z,78.06
2019-03-04T17:34:21.190Z,78.34
2019-03-04T17:35:21.244Z,77.49
2019-03-04T17:37:14.216Z,78.72
2019-03-04T17:38:14.272Z,77.77
2019-03-04T17:40:07.271Z,77.58
2019-03-04T17:41:07.322Z,77.11
2019-03-04T17:43:00.296Z,77.30
2019-03-04T17:44:00.353Z,77.49
2019-03-04T17:45:53.347Z,77.30
2019-03-04T17:46:53.391Z,77.97
2019-03-04T17:48:46.382Z,77.30
2019-03-04T17:49:46.426Z,77.45
2019-03-04T17:51:39.415Z,76.78
2019-03-04T17:52:39.494Z,77.26
2019-03-04T17:54:32.457Z,77.39
2019-03-04T17:55:32.506Z,77.39
2019-03-04T17:57:25.482Z,77.83
2019-03-04T17:58:25.538Z,77.45
2019-03-04T18:00:18.524Z,77.68
2019-03-04T18:01:18.572Z,77.83
2019-03-04T18:03:11.546Z,77.36
2019-03-04T18:04:11.603Z,77.30
2019-03-04T18:06:04.591Z,77.73
2019-03-04T18:07:04.639Z,77.55
2019-03-04T18:08:57.622Z,76.50
2019-03-04T18:09:57.675Z,76.21
2019-03-04T18:11:50.649Z,76.21
2019-03-04T18:12:50.705Z,76.40
2019-03-04T18:14:43.688Z,75.64
2019-03-04T18:15:43.738Z,75.93
2019-03-04T18:17:36.717Z,75.74
2019-03-04T18:18:36.824Z,76.21
2019-03-04T18:20:34.459Z,76.03
2019-03-04T18:21:29.816Z,76.21
2019-03-04T18:23:22.796Z,76.40
2019-03-04T18:24:22.875Z,77.64
2019-03-04T18:26:15.839Z,76.88
2019-03-04T18:27:15.886Z,76.12
2019-03-04T18:29:08.910Z,77.92
2019-03-04T18:30:08.928Z,77.64
2019-03-04T18:32:01.956Z,78.82
2019-03-04T18:33:01.966Z,78.82
2019-03-04T18:34:54.950Z,78.44